Time;durP1;ratioP1;P1;durP2;ratioP2;P2;SDS_P1;SDS_P2;PMS_P1;PMS_P2;Temp;Humidity;BMP_temperature;BMP_pressure;BME280_temperature;BME280_humidity;BME280_pressure;Samples;Min_cycle;Max_cycle;Signal;HPM_P1;HPM_P2
2021/01/06 00:05:27;;;;;;;4.22;3.05;;;;;;;1.85;75.42;97214.16;13102462;22;20037;-74
2021/01/06 00:10:55;;;;;;;4.65;3.15;;;;;;;1.88;75.95;97209.56;13141482;22;20048;-74
2021/01/06 00:16:15;;;;;;;3.55;2.58;;;;;;;1.89;75.77;97197.25;13141413;22;20057;-74
2021/01/06 00:21:38;;;;;;;3.70;2.67;;;;;;;1.84;75.90;97190.66;13119424;22;20334;-74
2021/01/06 00:26:58;;;;;;;3.78;2.63;;;;;;;1.86;75.53;97199.09;13142779;22;20080;-74
2021/01/06 00:32:19;;;;;;;4.80;2.63;;;;;;;1.86;75.69;97199.09;13119139;22;20031;-74
2021/01/06 00:37:39;;;;;;;4.43;2.78;;;;;;;1.87;75.60;97206.06;13118159;22;20457;-74
2021/01/06 00:43:04;;;;;;;3.85;2.72;;;;;;;1.91;75.68;97192.66;13123386;22;20027;-74
2021/01/06 00:48:25;;;;;;;3.53;2.53;;;;;;;1.86;75.92;97193.59;13076930;22;20027;-74
2021/01/06 00:53:48;;;;;;;3.77;2.40;;;;;;;1.82;75.67;97176.69;13096244;22;20033;-74
2021/01/06 00:59:08;;;;;;;4.35;3.00;;;;;;;1.78;75.58;97175.59;13095887;22;20101;-74
2021/01/06 01:04:28;;;;;;;4.63;2.67;;;;;;;1.71;75.53;97185.31;13139084;22;20094;-74
2021/01/06 01:09:48;;;;;;;4.18;2.70;;;;;;;1.66;75.64;97175.97;13095275;22;20031;-74
2021/01/06 01:15:08;;;;;;;4.47;2.80;;;;;;;1.61;75.84;97185.13;13140790;22;20337;-74
2021/01/06 01:20:28;;;;;;;4.50;2.75;;;;;;;1.61;76.10;97182.38;13095601;22;20022;-74
2021/01/06 01:25:48;;;;;;;4.30;2.88;;;;;;;1.64;75.66;97177.78;13141011;22;20026;-74
2021/01/06 01:31:08;;;;;;;4.90;2.90;;;;;;;1.61;76.14;97174.13;13116928;22;20033;-74
2021/01/06 01:36:28;;;;;;;5.88;3.17;;;;;;;1.54;76.05;97179.59;13141342;22;20388;-74
2021/01/06 01:41:55;;;;;;;5.50;3.00;;;;;;;1.51;75.83;97169.69;13052166;22;20026;-74
2021/01/06 01:47:16;;;;;;;5.13;3.17;;;;;;;1.41;76.23;97177.75;13077506;22;20334;-74
2021/01/06 01:52:39;;;;;;;5.53;3.33;;;;;;;1.36;76.36;97178.66;13094797;22;20038;-74
2021/01/06 01:58:05;;;;;;;5.13;3.13;;;;;;;1.33;76.36;97172.22;13117664;22;20101;-74
2021/01/06 02:03:31;;;;;;;5.18;3.15;;;;;;;1.32;76.24;97181.03;13072576;22;20392;-74
2021/01/06 02:08:53;;;;;;;;;;;;;;;1.35;76.17;97180.69;13095047;22;20034;-74
2021/01/06 02:14:18;;;;;;;6.28;3.30;;;;;;;1.39;75.66;97183.78;13096149;22;19992;-74
2021/01/06 02:19:43;;;;;;;5.03;2.95;;;;;;;1.47;76.09;97183.09;13120123;22;20378;-74
2021/01/06 02:25:03;;;;;;;4.28;3.13;;;;;;;1.53;75.84;97178.88;13145452;22;20104;-74
2021/01/06 02:30:24;;;;;;;4.18;3.17;;;;;;;1.60;76.11;97169.91;13078316;22;20054;-74
2021/01/06 02:35:43;;;;;;;4.35;3.80;;;;;;;1.66;75.95;97164.22;13098494;22;20025;-74
2021/01/06 02:41:04;;;;;;;7.70;3.50;;;;;;;1.66;75.71;97170.47;13110848;22;20198;-74
2021/01/06 02:46:24;;;;;;;5.07;3.47;;;;;;;1.63;75.64;97165.31;13098369;22;20027;-74
2021/01/06 02:51:48;;;;;;;4.30;3.58;;;;;;;1.60;75.46;97141.66;13098111;22;20027;-74
2021/01/06 02:57:08;;;;;;;4.95;3.55;;;;;;;1.60;75.53;97144.41;13119673;22;20479;-74
2021/01/06 03:02:28;;;;;;;6.97;4.07;;;;;;;1.60;76.02;97136.16;13098680;22;20033;-74
2021/01/06 03:07:48;;;;;;;3.95;2.80;;;;;;;1.66;75.88;97147.72;13142838;22;20081;-74
2021/01/06 03:13:08;;;;;;;3.40;3.10;;;;;;;1.72;75.81;97151.75;13119278;22;20026;-74
2021/01/06 03:18:28;;;;;;;3.38;2.80;;;;;;;1.76;75.33;97151.41;13033539;22;20030;-74
2021/01/06 03:23:51;;;;;;;4.35;3.38;;;;;;;1.81;75.96;97139.47;13097566;22;20034;-74
2021/01/06 03:29:11;;;;;;;3.97;3.33;;;;;;;1.81;75.24;97146.97;13097474;22;20101;-74
2021/01/06 03:34:37;;;;;;;3.75;3.30;;;;;;;1.82;75.84;97146.44;13118914;22;20030;-74
2021/01/06 03:40:06;;;;;;;4.00;2.92;;;;;;;1.88;75.61;97144.25;13094006;22;20026;-74
2021/01/06 03:45:27;;;;;;;4.20;3.22;;;;;;;1.92;75.76;97130.81;13098973;22;20068;-74
2021/01/06 03:50:51;;;;;;;3.40;3.10;;;;;;;1.93;75.85;97132.31;13096875;22;20027;-74
2021/01/06 03:56:24;;;;;;;5.55;3.97;;;;;;;1.93;75.50;97134.31;13098279;22;20033;-74
2021/01/06 04:02:25;;;;;;;4.60;3.42;;;;;;;1.93;75.10;97131.56;13118343;22;20034;-74
2021/01/06 04:07:56;;;;;;;4.43;3.47;;;;;;;1.92;75.36;97119.09;13097372;22;20030;-74
2021/01/06 04:13:16;;;;;;;4.43;3.58;;;;;;;1.92;75.39;97122.56;13056479;22;20033;-76
2021/01/06 04:18:36;;;;;;;5.43;4.30;;;;;;;1.91;75.30;97112.84;13096239;22;20404;-76
2021/01/06 04:23:56;;;;;;;4.90;3.97;;;;;;;1.90;75.30;97105.88;13096234;22;20034;-76
2021/01/06 04:29:15;;;;;;;5.00;4.25;;;;;;;1.89;75.78;97104.41;13097352;22;20031;-76
2021/01/06 04:34:35;;;;;;;7.75;4.53;;;;;;;1.86;75.58;97094.53;13117785;22;20038;-75
2021/01/06 04:39:55;;;;;;;6.75;4.88;;;;;;;1.86;75.17;97099.28;13114916;22;20431;-76
2021/01/06 04:45:19;;;;;;;5.97;4.97;;;;;;;1.86;75.35;97093.78;13117658;22;20091;-76
2021/01/06 04:50:50;;;;;;;5.32;4.43;;;;;;;1.89;75.79;97076.88;13096369;22;20094;-76
2021/01/06 04:56:32;;;;;;;7.90;5.70;;;;;;;1.88;75.34;97089.19;13142021;22;20033;-76
2021/01/06 05:02:06;;;;;;;7.63;5.40;;;;;;;1.89;75.47;97089.91;13096381;22;20053;-75
2021/01/06 05:08:14;;;;;;;7.07;5.32;;;;;;;1.87;75.75;97084.97;13119300;22;20034;-76
2021/01/06 05:13:50;;;;;;;7.63;5.55;;;;;;;1.88;75.79;97083.69;13111211;22;20501;-76
2021/01/06 05:19:26;;;;;;;7.55;5.38;;;;;;;1.93;75.80;97082.00;13095669;22;20028;-76
2021/01/06 05:24:50;;;;;;;8.82;5.47;;;;;;;1.95;75.16;97091.22;13093680;22;20034;-76
2021/01/06 05:30:24;;;;;;;8.30;5.00;;;;;;;1.93;75.22;97093.78;13115787;22;20026;-76
2021/01/06 05:35:46;;;;;;;7.23;5.47;;;;;;;1.92;75.37;97089.53;13095627;22;20103;-76
2021/01/06 05:41:06;;;;;;;7.72;5.57;;;;;;;1.94;75.58;97094.53;13108995;22;20054;-76
2021/01/06 05:46:28;;;;;;;7.25;5.72;;;;;;;1.93;75.34;97102.03;13139515;22;20535;-76
2021/01/06 05:52:00;;;;;;;6.93;5.70;;;;;;;1.88;75.75;97097.44;13097673;22;20483;-76
2021/01/06 05:57:43;;;;;;;8.02;6.03;;;;;;;1.92;75.58;97092.28;13121151;22;20358;-76
2021/01/06 06:03:42;;;;;;;7.05;5.63;;;;;;;1.88;75.16;97096.72;13123369;22;20029;-76
2021/01/06 06:09:29;;;;;;;8.25;6.07;;;;;;;1.85;75.27;97089.56;13136444;22;20033;-81
2021/01/06 06:15:38;;;;;;;8.57;6.68;;;;;;;1.86;75.45;97086.25;13157010;22;20033;-80
2021/01/06 06:21:31;;;;;;;9.25;6.78;;;;;;;1.87;75.79;97082.22;13162871;22;20059;-80
2021/01/06 06:26:58;;;;;;;8.90;6.05;;;;;;;1.91;75.50;97088.06;13155684;22;20033;-80
2021/01/06 06:32:18;;;;;;;10.60;6.60;;;;;;;1.92;75.90;97080.56;13131626;22;20057;-80
2021/01/06 06:37:37;;;;;;;10.23;6.72;;;;;;;1.94;75.99;97098.00;13131251;22;20097;-81
2021/01/06 06:43:01;;;;;;;7.90;5.88;;;;;;;1.93;75.23;97106.78;13018820;22;20438;-80
2021/01/06 06:49:11;;;;;;;8.20;6.03;;;;;;;1.89;75.83;97095.44;13045803;22;20438;-80
2021/01/06 06:54:58;;;;;;;9.95;6.55;;;;;;;1.91;75.66;97092.84;13048080;22;20027;-80
2021/01/06 07:00:24;;;;;;;7.50;5.55;;;;;;;1.95;75.83;97101.50;13068177;22;20023;-80
2021/01/06 07:05:55;;;;;;;7.00;5.75;;;;;;;1.92;75.50;97092.28;13065642;22;20323;-80
2021/01/06 07:11:46;;;;;;;8.15;5.68;;;;;;;1.96;75.85;97092.66;13088893;22;20465;-80
2021/01/06 07:17:35;;;;;;;7.70;5.57;;;;;;;1.94;76.10;97087.00;13065826;22;20031;-78
2021/01/06 07:23:01;;;;;;;7.47;5.18;;;;;;;2.01;75.44;97094.47;13071167;22;20031;-79
2021/01/06 07:28:22;;;;;;;5.72;4.38;;;;;;;2.09;75.80;97077.97;13065578;22;20027;-79
2021/01/06 07:33:44;;;;;;;6.50;4.53;;;;;;;2.14;76.03;97095.59;13089743;22;20100;-79
2021/01/06 07:39:04;;;;;;;5.07;3.88;;;;;;;2.19;74.92;97097.41;13068202;22;20034;-79
2021/01/06 07:44:36;;;;;;;6.95;4.25;;;;;;;2.19;75.09;97091.91;13046221;22;20027;-79
2021/01/06 07:50:00;;;;;;;7.05;3.92;;;;;;;2.29;75.67;97084.53;13066648;22;20031;-79
2021/01/06 07:55:57;;;;;;;5.85;4.05;;;;;;;2.34;75.41;97089.13;13043872;22;20027;-78
2021/01/06 08:01:35;;;;;;;8.52;3.80;;;;;;;2.39;75.22;97077.16;13066258;22;20027;-79
2021/01/06 08:07:06;;;;;;;4.63;3.28;;;;;;;2.42;75.00;97081.56;13005779;22;20047;-79
2021/01/06 08:12:40;;;;;;;4.35;3.55;;;;;;;2.48;75.46;97090.34;13070137;22;20037;-79
2021/01/06 08:18:36;;;;;;;5.53;3.65;;;;;;;2.56;75.27;97082.78;13044940;22;20027;-79
2021/01/06 08:24:08;;;;;;;6.05;4.00;;;;;;;2.64;75.55;97091.03;13053337;22;20026;-78
2021/01/06 08:29:33;;;;;;;6.32;4.82;;;;;;;2.66;74.78;97088.44;13072592;22;20027;-80
2021/01/06 08:34:58;;;;;;;;;;;;;;;2.67;74.77;97089.91;13078219;22;20354;-75
2021/01/06 08:40:38;;;;;;;5.75;3.85;;;;;;;2.70;74.71;97093.56;13004636;22;19974;-75
2021/01/06 08:45:59;;;;;;;5.35;4.28;;;;;;;2.68;74.47;97090.66;13096565;22;20050;-75
2021/01/06 08:51:32;;;;;;;7.10;5.25;;;;;;;2.70;74.64;97079.78;13095710;22;20465;-75
2021/01/06 08:57:23;;;;;;;7.35;5.43;;;;;;;2.75;74.60;97085.09;13137406;22;20027;-77
2021/01/06 09:02:49;;;;;;;6.50;4.82;;;;;;;2.80;74.76;97084.19;13122402;22;20026;-76
2021/01/06 09:08:32;;;;;;;7.90;5.72;;;;;;;2.82;75.01;97089.88;13053765;22;20026;-77
2021/01/06 09:14:03;;;;;;;8.52;5.60;;;;;;;2.85;74.42;97088.00;13119892;22;20027;-76
2021/01/06 09:19:36;;;;;;;7.85;5.82;;;;;;;2.88;74.79;97086.88;13140077;22;20384;-77
2021/01/06 09:24:56;;;;;;;6.32;4.93;;;;;;;2.92;74.84;97086.50;13116495;22;20392;-77
2021/01/06 09:30:19;;;;;;;7.90;5.72;;;;;;;3.06;74.55;97085.69;13116362;22;20030;-77
2021/01/06 09:35:39;;;;;;;7.28;5.07;;;;;;;3.19;74.30;97078.47;13118608;22;20348;-77
2021/01/06 09:41:02;;;;;;;7.63;5.13;;;;;;;3.18;74.67;97085.97;13065056;22;20034;-77
2021/01/06 09:47:03;;;;;;;7.13;4.70;;;;;;;3.14;74.30;97089.13;13116043;22;20080;-77
2021/01/06 09:52:35;;;;;;;6.18;4.47;;;;;;;3.17;73.79;97090.75;13101496;22;20112;-77
2021/01/06 09:58:29;;;;;;;6.13;5.03;;;;;;;3.16;73.64;97078.28;13076393;22;20037;-77
2021/01/06 10:03:51;;;;;;;7.22;4.63;;;;;;;3.13;74.16;97073.88;13118668;22;20023;-77
2021/01/06 10:09:38;;;;;;;5.55;3.67;;;;;;;3.14;73.44;97066.34;13116635;22;20027;-77
2021/01/06 10:15:37;;;;;;;6.35;3.45;;;;;;;3.26;73.97;97058.34;13095437;22;20027;-77
2021/01/06 10:21:26;;;;;;;5.88;4.32;;;;;;;3.30;74.09;97058.72;13118571;22;20026;-78
2021/01/06 10:27:19;;;;;;;6.32;4.32;;;;;;;3.28;73.64;97053.00;13097646;22;20461;-77
2021/01/06 10:32:46;;;;;;;7.88;4.57;;;;;;;3.24;73.86;97045.13;13117016;22;20027;-78
2021/01/06 10:38:28;;;;;;;7.07;5.07;;;;;;;3.24;74.14;97056.16;13052481;22;20058;-75
2021/01/06 10:43:52;;;;;;;7.55;4.93;;;;;;;3.19;73.08;97045.38;13119645;22;20030;-76
2021/01/06 10:49:23;;;;;;;7.68;5.53;;;;;;;3.25;73.27;97043.09;13140271;22;20027;-77
2021/01/06 10:55:17;;;;;;;7.32;5.40;;;;;;;3.27;73.95;97037.75;13120144;22;20027;-74
2021/01/06 11:01:08;;;;;;;8.10;5.97;;;;;;;3.22;73.82;97024.94;13023349;22;20452;-74
2021/01/06 11:07:03;;;;;;;7.45;5.35;;;;;;;3.23;73.97;97021.59;13141228;22;20105;-75
2021/01/06 11:12:38;;;;;;;7.93;5.47;;;;;;;3.42;74.19;97021.09;13142404;22;20026;-79
2021/01/06 11:18:30;;;;;;;6.13;4.40;;;;;;;3.52;73.92;97024.69;13118555;22;20033;-77
2021/01/06 11:23:54;;;;;;;6.15;4.70;;;;;;;3.66;73.48;97022.34;13104212;22;20023;-79
2021/01/06 11:29:46;;;;;;;7.53;4.63;;;;;;;3.68;73.44;97033.59;13140867;22;20527;-78
2021/01/06 11:35:24;;;;;;;4.63;3.88;;;;;;;3.82;73.23;97022.97;13096582;22;20030;-78
2021/01/06 11:40:48;;;;;;;5.28;3.42;;;;;;;3.73;73.16;97011.25;13111052;22;20026;-78
2021/01/06 11:46:41;;;;;;;5.28;3.35;;;;;;;3.45;73.24;97008.91;13118313;22;20090;-78
2021/01/06 11:52:30;;;;;;;4.10;2.95;;;;;;;3.17;72.95;97002.50;13096061;22;20046;-77
2021/01/06 11:57:59;;;;;;;4.25;3.15;;;;;;;3.04;73.74;97002.78;13140091;22;20027;-78
2021/01/06 12:04:01;;;;;;;4.22;3.03;;;;;;;3.02;74.16;97001.91;13140134;22;20088;-78
2021/01/06 12:10:06;;;;;;;5.97;3.92;;;;;;;2.97;73.66;97000.09;13069414;22;20058;-78
2021/01/06 12:16:01;;;;;;;6.47;3.80;;;;;;;2.76;73.99;96997.63;13027051;22;20101;-75
2021/01/06 12:21:35;;;;;;;5.57;3.55;;;;;;;2.76;74.55;96992.84;13084565;22;20026;-77
2021/01/06 12:27:00;;;;;;;4.72;3.55;;;;;;;2.84;73.85;96988.03;13115805;22;20029;-76
2021/01/06 12:32:37;;;;;;;4.95;3.42;;;;;;;2.97;73.65;96989.78;13114281;22;20386;-77
2021/01/06 12:38:25;;;;;;;7.88;4.40;;;;;;;3.02;73.88;96991.59;13091569;22;20061;-77
2021/01/06 12:44:18;;;;;;;6.28;4.40;;;;;;;3.02;74.50;96986.09;13114677;22;20135;-77
2021/01/06 12:49:58;;;;;;;7.43;3.95;;;;;;;3.12;73.64;96992.44;13092431;22;20364;-77
2021/01/06 12:55:36;;;;;;;5.43;3.72;;;;;;;3.10;73.29;96986.03;13074928;22;20441;-77
2021/01/06 13:01:25;;;;;;;6.85;3.97;;;;;;;3.00;73.42;96994.19;13071583;22;20034;-77
2021/01/06 13:06:56;;;;;;;4.65;3.22;;;;;;;2.88;73.79;96987.63;13053755;22;20054;-77
2021/01/06 13:12:25;;;;;;;5.68;3.30;;;;;;;2.75;74.22;96991.41;13116902;22;20093;-77
2021/01/06 13:17:45;;;;;;;5.22;3.60;;;;;;;2.67;73.89;96989.97;13093552;22;20027;-77
2021/01/06 13:23:13;;;;;;;4.72;3.10;;;;;;;2.64;74.27;96991.09;13070814;22;20449;-77
2021/01/06 13:28:36;;;;;;;5.00;3.63;;;;;;;2.59;74.52;96996.25;13137086;22;20416;-77
2021/01/06 13:34:22;;;;;;;5.22;3.60;;;;;;;2.62;73.88;96999.94;13113928;22;20441;-77
2021/01/06 13:39:49;;;;;;;5.97;3.53;;;;;;;2.69;74.13;96996.38;13111126;22;20050;-77
2021/01/06 13:45:11;;;;;;;4.65;3.42;;;;;;;2.76;73.76;96997.63;13092285;22;20349;-77
2021/01/06 13:51:00;;;;;;;5.68;3.65;;;;;;;2.87;74.56;96995.19;13113286;22;20058;-77
2021/01/06 13:56:35;;;;;;;5.80;3.88;;;;;;;2.88;74.09;97001.41;13113402;22;20459;-77
2021/01/06 14:02:01;;;;;;;7.22;3.70;;;;;;;2.84;73.98;97001.09;13115839;22;20033;-77
2021/01/06 14:08:07;;;;;;;4.50;3.47;;;;;;;2.73;74.00;97009.78;13071060;22;20030;-77
2021/01/06 14:13:55;;;;;;;4.13;3.28;;;;;;;2.59;73.92;96996.25;13080487;22;20027;-78
2021/01/06 14:20:10;;;;;;;5.50;3.67;;;;;;;2.54;74.15;97008.22;13140637;22;20093;-78
2021/01/06 14:25:38;;;;;;;5.22;3.65;;;;;;;2.45;74.98;97005.34;13128520;22;20326;-77
2021/01/06 14:31:21;;;;;;;5.53;3.83;;;;;;;2.37;73.87;97004.63;13121491;22;20026;-77
2021/01/06 14:36:57;;;;;;;5.20;3.85;;;;;;;2.32;74.72;97011.81;13122334;22;20433;-75
2021/01/06 14:42:35;;;;;;;5.13;4.25;;;;;;;2.33;74.44;97013.28;13124083;22;20050;-75
2021/01/06 14:48:05;;;;;;;5.82;4.20;;;;;;;2.36;75.23;97012.16;13120383;22;20033;-75
2021/01/06 14:53:44;;;;;;;5.60;4.05;;;;;;;2.26;74.56;97014.03;13121617;22;20031;-75
2021/01/06 14:59:21;;;;;;;5.40;4.07;;;;;;;2.22;74.63;97021.94;13101071;22;20027;-75
2021/01/06 15:04:41;;;;;;;5.07;3.90;;;;;;;2.13;74.90;97022.53;13101165;22;20068;-74
2021/01/06 15:10:28;;;;;;;4.88;3.80;;;;;;;2.07;75.12;97017.22;13076034;22;20090;-75
2021/01/06 15:15:51;;;;;;;6.43;4.20;;;;;;;2.07;74.73;97024.75;13101344;22;20030;-77
2021/01/06 15:21:31;;;;;;;5.05;3.75;;;;;;;2.06;74.89;97026.03;13119971;22;20084;-79
2021/01/06 15:27:17;;;;;;;5.97;3.83;;;;;;;1.97;74.73;97022.56;13119114;22;20439;-78
2021/01/06 15:33:06;;;;;;;5.20;3.60;;;;;;;1.94;74.90;97023.69;12924723;22;20035;-78
2021/01/06 15:38:26;;;;;;;4.45;3.75;;;;;;;1.94;76.10;97014.69;12922600;22;20024;-78
2021/01/06 15:43:49;;;;;;;4.80;3.53;;;;;;;1.93;74.95;97021.47;12901691;22;20029;-80
2021/01/06 15:49:23;;;;;;;5.45;4.05;;;;;;;1.87;75.16;97018.91;12922551;22;20028;-78
2021/01/06 15:54:43;;;;;;;5.38;3.85;;;;;;;1.87;75.36;97015.44;12900860;22;20067;-78
2021/01/06 16:00:19;;;;;;;5.75;4.53;;;;;;;1.88;75.60;97014.88;12902060;22;20049;-77
2021/01/06 16:05:39;;;;;;;6.35;3.90;;;;;;;1.88;75.53;97019.66;13142980;22;20026;-75
2021/01/06 16:11:01;;;;;;;5.72;3.85;;;;;;;1.84;75.70;97025.53;13118267;22;20103;-75
2021/01/06 16:16:26;;;;;;;4.70;3.80;;;;;;;1.83;75.37;97024.06;13073648;22;20488;-76
2021/01/06 16:21:46;;;;;;;;;;;;;;;1.87;75.85;97027.19;13117695;22;20030;-75
2021/01/06 16:27:10;;;;;;;3.95;3.47;;;;;;;1.88;75.75;97030.66;13073346;22;19914;-75
2021/01/06 16:32:30;;;;;;;5.00;3.45;;;;;;;1.92;75.58;97037.25;13095055;22;20075;-74
2021/01/06 16:38:20;;;;;;;6.30;4.10;;;;;;;1.93;75.57;97032.47;13003979;22;20027;-76
2021/01/06 16:43:41;;;;;;;4.35;3.55;;;;;;;1.87;75.39;97035.44;13096832;22;20031;-77
2021/01/06 16:49:08;;;;;;;5.10;3.30;;;;;;;1.88;76.13;97036.16;13116346;22;20027;-80
2021/01/06 16:54:31;;;;;;;5.25;3.67;;;;;;;1.91;76.19;97041.28;13139506;22;20080;-78
2021/01/06 16:59:51;;;;;;;4.05;3.28;;;;;;;1.93;75.80;97055.25;13094926;22;20397;-76
2021/01/06 17:05:18;;;;;;;4.18;2.42;;;;;;;1.88;76.30;97058.91;13118636;22;20030;-76
2021/01/06 17:10:39;;;;;;;4.03;2.70;;;;;;;1.83;77.58;97059.09;13096507;22;20027;-80
2021/01/06 17:16:14;;;;;;;3.03;2.13;;;;;;;1.78;76.61;97065.53;12968387;22;20024;-75
2021/01/06 17:21:36;;;;;;;2.63;1.92;;;;;;;1.75;76.10;97067.38;12973399;22;20355;-74
2021/01/06 17:27:22;;;;;;;2.47;1.60;;;;;;;1.74;76.43;97063.16;12986897;22;20028;-75
2021/01/06 17:32:44;;;;;;;2.78;1.92;;;;;;;1.73;75.81;97075.44;13008487;22;20035;-78
2021/01/06 17:38:10;;;;;;;2.72;1.85;;;;;;;1.69;76.22;97070.31;12986519;22;20031;-78
2021/01/06 17:43:29;;;;;;;2.70;1.80;;;;;;;1.70;76.48;97076.53;13009329;22;20058;-77
2021/01/06 17:48:50;;;;;;;3.80;1.95;;;;;;;1.67;76.53;97069.41;12967775;22;20031;-80
2021/01/06 17:54:15;;;;;;;4.32;2.80;;;;;;;1.60;76.28;97062.59;12980897;22;20024;-81
2021/01/06 17:59:50;;;;;;;3.40;2.53;;;;;;;1.58;76.32;97056.19;13067781;22;20023;-81
2021/01/06 18:05:11;;;;;;;3.45;2.22;;;;;;;1.62;76.59;97060.03;13029576;22;20034;-77
2021/01/06 18:10:38;;;;;;;3.42;2.50;;;;;;;1.67;76.34;97061.88;13050808;22;20031;-77
2021/01/06 18:16:00;;;;;;;4.38;2.97;;;;;;;1.69;76.62;97069.56;13050753;22;20085;-75
2021/01/06 18:21:38;;;;;;;4.78;3.60;;;;;;;1.68;76.68;97076.38;13050285;22;20539;-76
2021/01/06 18:27:09;;;;;;;5.43;3.78;;;;;;;1.71;76.86;97081.50;13073064;22;20031;-76
2021/01/06 18:32:30;;;;;;;5.80;3.50;;;;;;;1.74;76.47;97085.19;13050568;22;20060;-76
2021/01/06 18:37:57;;;;;;;3.78;2.97;;;;;;;1.77;76.42;97080.59;13072927;22;20034;-76
2021/01/06 18:43:18;;;;;;;4.35;2.85;;;;;;;1.77;76.41;97103.31;13050207;22;20445;-75
2021/01/06 18:48:38;;;;;;;4.00;2.90;;;;;;;1.77;76.68;97097.09;13072907;22;20334;-76
2021/01/06 18:53:58;;;;;;;3.70;2.78;;;;;;;1.74;76.49;97096.19;13049939;22;20535;-77
2021/01/06 18:59:30;;;;;;;4.38;3.20;;;;;;;1.74;76.55;97093.44;13094093;22;20064;-77
2021/01/06 19:05:06;;;;;;;3.75;3.00;;;;;;;1.75;76.42;97100.41;13141594;22;20080;-77
2021/01/06 19:10:32;;;;;;;7.55;3.70;;;;;;;1.77;76.73;97102.59;13117908;22;20027;-75
2021/01/06 19:15:52;;;;;;;5.57;3.97;;;;;;;1.76;76.15;97115.63;13117936;22;20357;-76
2021/01/06 19:21:16;;;;;;;6.30;4.40;;;;;;;1.68;76.73;97107.38;13141030;22;20109;-75
2021/01/06 19:26:35;;;;;;;6.13;4.13;;;;;;;1.70;76.70;97109.56;13119949;22;20023;-74
2021/01/06 19:32:07;;;;;;;5.20;3.85;;;;;;;1.69;76.91;97119.09;13095825;22;20384;-75
2021/01/06 19:37:26;;;;;;;6.93;4.63;;;;;;;1.72;76.69;97115.25;13117354;22;20027;-75
2021/01/06 19:42:57;;;;;;;5.38;3.88;;;;;;;1.71;76.71;97113.78;13117554;22;20050;-75
2021/01/06 19:48:26;;;;;;;5.32;4.47;;;;;;;1.73;76.97;97113.94;13118204;22;20022;-75
2021/01/06 19:53:45;;;;;;;5.88;3.78;;;;;;;1.76;77.17;97112.13;13116977;22;20097;-76
2021/01/06 19:59:06;;;;;;;5.90;4.03;;;;;;;1.79;77.20;97116.53;13127239;22;20026;-74
2021/01/06 20:04:26;;;;;;;5.82;4.05;;;;;;;1.79;76.54;97117.25;13117098;22;20050;-74
2021/01/06 20:09:45;;;;;;;4.88;4.10;;;;;;;1.77;76.89;97114.34;13116728;22;20046;-74
2021/01/06 20:15:06;;;;;;;6.75;4.68;;;;;;;1.77;77.01;97119.84;13118416;22;20026;-75
2021/01/06 20:20:26;;;;;;;7.40;5.00;;;;;;;1.65;76.48;97110.50;13095149;22;20057;-74
2021/01/06 20:25:46;;;;;;;6.55;5.13;;;;;;;1.57;76.64;97113.22;13116746;22;20034;-75
2021/01/06 20:31:07;;;;;;;7.22;5.30;;;;;;;1.61;77.12;97112.84;13139441;22;20027;-75
2021/01/06 20:36:28;;;;;;;5.82;4.97;;;;;;;1.60;76.68;97106.63;13139484;22;20496;-76
2021/01/06 20:41:48;;;;;;;6.72;5.28;;;;;;;1.52;77.24;97119.63;13139468;22;20410;-75
2021/01/06 20:47:08;;;;;;;6.25;5.57;;;;;;;1.55;76.83;97110.31;13139124;22;20330;-76
2021/01/06 20:52:31;;;;;;;8.25;6.30;;;;;;;1.54;77.00;97108.81;13116779;22;20030;-75
2021/01/06 20:57:50;;;;;;;9.15;6.28;;;;;;;1.52;77.11;97102.41;13131126;22;20359;-75
2021/01/06 21:03:10;;;;;;;8.13;6.90;;;;;;;1.51;76.85;97111.94;13138788;22;20092;-74
2021/01/06 21:08:32;;;;;;;7.90;5.80;;;;;;;1.48;77.56;97110.28;13116185;22;20342;-77
2021/01/06 21:13:53;;;;;;;7.68;5.93;;;;;;;1.48;77.14;97113.03;13139033;22;20101;-77
2021/01/06 21:19:13;;;;;;;7.10;5.57;;;;;;;1.44;77.14;97102.38;13096139;22;20034;-77
2021/01/06 21:24:33;;;;;;;9.13;5.82;;;;;;;1.45;77.37;97112.13;13094983;22;20053;-77
2021/01/06 21:29:52;;;;;;;7.55;5.43;;;;;;;1.53;77.19;97112.84;13140872;22;20026;-78
2021/01/06 21:35:13;;;;;;;7.50;5.90;;;;;;;1.57;77.21;97121.47;13116811;22;20027;-78
2021/01/06 21:40:34;;;;;;;9.05;6.57;;;;;;;1.63;77.15;97115.78;13141360;22;20448;-78
2021/01/06 21:45:54;;;;;;;8.20;6.07;;;;;;;1.65;77.47;97113.25;13142226;22;20480;-75
2021/01/06 21:51:14;;;;;;;10.30;6.68;;;;;;;1.71;77.02;97117.25;13139954;22;20027;-76
2021/01/06 21:56:34;;;;;;;9.10;6.38;;;;;;;1.72;77.07;97123.50;13137655;22;20399;-76
2021/01/06 22:01:54;;;;;;;9.52;7.43;;;;;;;1.70;77.36;97137.06;13096013;22;20023;-76
2021/01/06 22:07:14;;;;;;;9.65;6.85;;;;;;;1.64;77.68;97129.00;13094816;22;20026;-76
2021/01/06 22:12:34;;;;;;;10.55;7.10;;;;;;;1.67;77.27;97127.19;13116952;22;20026;-76
2021/01/06 22:17:54;;;;;;;9.75;6.40;;;;;;;1.66;76.86;97128.47;13139386;22;20057;-76
2021/01/06 22:23:14;;;;;;;10.05;6.93;;;;;;;1.59;77.09;97132.66;13117709;22;20080;-76
2021/01/06 22:28:34;;;;;;;7.35;5.75;;;;;;;1.64;77.39;97133.75;13140851;22;20034;-77
2021/01/06 22:33:53;;;;;;;7.13;5.82;;;;;;;1.62;77.10;97125.31;13118341;22;20072;-76
2021/01/06 22:39:13;;;;;;;7.20;5.70;;;;;;;1.59;77.42;97118.19;13143784;22;20109;-76
2021/01/06 22:44:33;;;;;;;8.23;6.47;;;;;;;1.52;77.60;97121.66;13122441;22;20026;-76
2021/01/06 22:49:53;;;;;;;7.82;6.30;;;;;;;1.55;77.54;97128.81;13120311;22;20027;-76
2021/01/06 22:55:13;;;;;;;7.95;6.10;;;;;;;1.56;77.09;97122.03;13119984;22;20027;-76
2021/01/06 23:00:33;;;;;;;8.48;6.38;;;;;;;1.58;77.00;97120.19;13123304;22;20094;-76
2021/01/06 23:05:53;;;;;;;9.88;7.05;;;;;;;1.64;77.56;97134.53;13144440;22;20027;-76
2021/01/06 23:11:13;;;;;;;10.30;6.93;;;;;;;1.67;77.50;97138.19;13144191;22;20027;-76
2021/01/06 23:16:32;;;;;;;8.98;6.93;;;;;;;1.66;77.07;97142.22;13097549;22;20064;-76
2021/01/06 23:21:52;;;;;;;9.57;6.82;;;;;;;1.68;77.46;97134.16;13098541;22;20030;-76
2021/01/06 23:27:12;;;;;;;9.55;6.80;;;;;;;1.68;77.48;97143.13;13141182;22;20142;-76
2021/01/06 23:32:32;;;;;;;8.60;6.68;;;;;;;1.71;77.82;97144.03;13120688;22;20105;-76
2021/01/06 23:37:52;;;;;;;8.68;6.70;;;;;;;1.69;77.10;97143.88;13142619;22;20062;-76
2021/01/06 23:43:11;;;;;;;7.97;6.18;;;;;;;1.68;77.26;97147.91;13143438;22;20037;-76
2021/01/06 23:48:31;;;;;;;8.50;6.63;;;;;;;1.66;77.13;97147.72;13142816;22;20026;-76
2021/01/06 23:53:51;;;;;;;7.57;5.68;;;;;;;1.55;77.14;97142.56;13142036;22;20019;-76
2021/01/06 23:59:11;;;;;;;10.20;7.72;;;;;;;1.52;77.13;97149.16;13105674;22;20097;-76
